Terminal Aerodrome Forecast
Issued by NWS Corpus Christi, TX

Home | Current Version | Previous Version | Text Only | Print | Product List | Glossary On
Versions: 1 2 3 4 5 6 7 8 9 10 11 12 13 14 15
000
FTUS44 KCRP 150400 AAA
TAFVCT
TAF AMD
KVCT 150423Z 1504/1524 06003KT P6SM OVC020
     FM151800 09004KT P6SM VCSH BKN035 BKN250
     FM152100 09005KT P6SM VCTS BKN035CB OVC250=

USA.gov is the U.S. government's official web portal to all federal, state and local government web resources and services.